Rising Star, Texas
Current Conditions -  °F | °C
As of 6:55 AM on Saturday 25 Oct 2014 (Local Time) from KBWD Reporting Station
Overcast Overcast  
Wind Chill: 55°   Ceiling: 2600
Heat Index: 55°   Visibility: 8mi
Dew Point: 55°   Wind: 0mph
Humidity: 100%   Direction: NA
Pressure: 30.15"   Gusts: NA
Location:  32.1°N, 98.96°W
Report Text: KBWD 251155Z AUTO 00000KT 8SM BKN026 OVC034 13/13 A3015 RMK AO2
Loading
Personal Weather Stations






























Interactive Weather Map
Tropical Storm Tracking
New forecast layout! Learn more

10-Day Weather Forecast

Advertisements
Track Severe Weather on mobile